Time;durP1;ratioP1;P1;durP2;ratioP2;P2;SDS_P1;SDS_P2;PMS_P1;PMS_P2;Temp;Humidity;BMP_temperature;BMP_pressure;BME280_temperature;BME280_humidity;BME280_pressure;Samples;Min_cycle;Max_cycle;Signal;HPM_P1;HPM_P2
2022/08/16 17:35:13;;;;;;;8.57;6.50;;;;;;;26.79;48.83;96518.06;6280139;22;20225;-72
2022/08/16 17:38:05;;;;;;;9.40;7.33;;;;;;;26.85;49.35;96521.84;6143783;22;20205;-75
2022/08/16 17:40:38;;;;;;;8.13;7.17;;;;;;;26.97;49.25;96533.69;6190585;22;20178;-73
2022/08/16 17:43:34;;;;;;;8.93;7.00;;;;;;;27.02;49.64;96539.25;6179274;22;20739;-74
2022/08/16 17:46:03;;;;;;;8.47;6.97;;;;;;;27.14;49.51;96549.25;6205084;22;20162;-73
2022/08/16 17:48:31;;;;;;;12.63;9.60;;;;;;;27.20;49.30;96543.19;6206095;22;20166;-74
2022/08/16 17:50:58;;;;;;;9.00;7.20;;;;;;;27.19;48.51;96541.53;6204927;22;20274;-76
2022/08/16 17:53:27;;;;;;;8.30;7.50;;;;;;;26.97;49.65;96547.78;6206115;22;20234;-75
2022/08/16 17:55:55;;;;;;;10.23;7.43;;;;;;;27.11;49.55;96549.63;6178422;22;20193;-72
2022/08/16 17:58:22;;;;;;;11.73;8.33;;;;;;;27.27;48.96;96549.41;6206073;22;20166;-75
2022/08/16 18:00:55;;;;;;;11.13;8.63;;;;;;;27.33;49.16;96556.66;6205228;22;20209;-72
2022/08/16 18:03:35;;;;;;;11.70;8.73;;;;;;;27.40;49.23;96556.78;6177998;22;20171;-72
2022/08/16 18:06:23;;;;;;;9.40;8.43;;;;;;;27.34;49.03;96555.69;6178878;22;20170;-76
2022/08/16 18:08:52;;;;;;;10.00;7.13;;;;;;;27.41;48.70;96553.09;6204518;22;20621;-75
2022/08/16 18:11:28;;;;;;;13.07;9.20;;;;;;;27.35;48.69;96562.66;6205865;22;20169;-74
2022/08/16 18:13:58;;;;;;;7.60;6.20;;;;;;;26.96;47.21;96564.75;6206045;22;20162;-75
2022/08/16 18:16:27;;;;;;;7.53;5.87;;;;;;;27.09;46.61;96564.94;6204537;22;20194;-76
2022/08/16 18:18:56;;;;;;;8.57;6.87;;;;;;;27.13;46.92;96574.19;6179785;22;20170;-74
2022/08/16 18:24:11;;;;;;;6.97;6.30;;;;;;;26.87;48.39;96576.47;6184010;22;20239;-75
2022/08/16 18:26:38;;;;;;;8.70;6.80;;;;;;;26.38;49.99;96572.56;6257855;22;20177;-75
2022/08/16 18:29:06;;;;;;;9.43;7.40;;;;;;;25.99;52.00;96575.34;6204348;22;20241;-71
2022/08/16 18:31:34;;;;;;;7.80;7.00;;;;;;;25.67;53.44;96592.31;6205896;22;20188;-73
2022/08/16 18:34:02;;;;;;;9.47;6.97;;;;;;;25.39;54.21;96596.38;6205031;22;20172;-73
2022/08/16 18:36:29;;;;;;;7.63;6.03;;;;;;;25.04;55.54;96592.34;6237361;22;20206;-73
2022/08/16 18:38:57;;;;;;;7.80;6.60;;;;;;;25.04;55.62;96581.75;6331510;22;20204;-72
2022/08/16 18:41:26;;;;;;;7.93;6.60;;;;;;;24.99;55.79;96585.91;6305520;22;20174;-72
2022/08/16 18:43:53;;;;;;;9.73;7.13;;;;;;;25.05;55.35;96585.25;6304901;22;20163;-74
2022/08/16 18:46:42;;;;;;;7.40;5.97;;;;;;;25.24;55.41;96589.31;6332260;22;20218;-76
2022/08/16 18:49:10;;;;;;;9.73;7.63;;;;;;;25.32;55.46;96579.50;6331643;22;20578;-75
2022/08/16 18:51:44;;;;;;;7.93;6.80;;;;;;;25.46;55.37;96589.41;6331720;22;20161;-75
2022/08/16 18:54:18;;;;;;;8.13;6.87;;;;;;;25.34;56.30;96593.44;6333288;22;20165;-74
2022/08/16 18:56:46;;;;;;;7.90;7.07;;;;;;;25.37;55.96;96586.97;6332346;22;20198;-75
2022/08/16 18:59:29;;;;;;;7.80;6.80;;;;;;;25.24;56.61;96579.56;6332425;22;20160;-76
2022/08/16 19:01:58;;;;;;;10.50;6.90;;;;;;;25.20;56.89;96588.84;6304900;22;20232;-73
2022/08/16 19:04:33;;;;;;;8.50;7.17;;;;;;;25.17;57.01;96594.47;6277928;22;20176;-73
2022/08/16 19:07:19;;;;;;;8.25;7.38;;;;;;;25.42;56.09;96590.75;6332505;22;20387;-73
2022/08/16 19:09:47;;;;;;;7.13;6.43;;;;;;;25.56;55.65;96587.38;6332336;22;20219;-71
2022/08/16 19:12:15;;;;;;;10.50;7.10;;;;;;;25.51;56.46;96575.66;6304920;22;20920;-74
2022/08/16 19:15:06;;;;;;;11.32;8.50;;;;;;;25.58;56.13;96580.06;6331667;22;20383;-72
2022/08/16 19:17:37;;;;;;;7.77;6.70;;;;;;;25.73;55.92;96606.69;6331434;22;20162;-70
2022/08/16 19:20:05;;;;;;;8.10;6.87;;;;;;;25.39;57.01;96599.03;6332724;22;20594;-74
2022/08/16 19:22:37;;;;;;;10.33;7.40;;;;;;;25.10;56.63;96598.78;6305685;22;20564;-73
2022/08/16 19:25:25;;;;;;;9.27;7.17;;;;;;;25.08;57.28;96600.78;6331705;22;20161;-74
2022/08/16 19:28:13;;;;;;;8.40;7.50;;;;;;;25.17;57.49;96606.88;6310270;22;20165;-78
2022/08/16 19:31:02;;;;;;;10.17;7.17;;;;;;;25.30;57.21;96596.59;6331500;22;20169;-74
2022/08/16 19:33:32;;;;;;;7.50;6.50;;;;;;;25.33;57.60;96607.66;6332234;22;20975;-73
2022/08/16 19:35:59;;;;;;;7.43;6.63;;;;;;;25.42;56.97;96611.97;6331816;22;20204;-75
2022/08/16 19:38:30;;;;;;;9.20;7.10;;;;;;;25.48;56.15;96616.59;6331472;22;20519;-75
2022/08/16 19:40:59;;;;;;;12.47;7.40;;;;;;;25.51;55.07;96605.63;6306388;22;20178;-76
2022/08/16 19:43:27;;;;;;;9.23;7.20;;;;;;;25.39;55.57;96606.97;6305547;22;20168;-74
2022/08/16 19:45:54;;;;;;;9.53;7.57;;;;;;;25.39;55.83;96616.78;6334397;22;20162;-74
2022/08/16 19:48:22;;;;;;;8.87;7.20;;;;;;;25.58;56.03;96619.84;6333548;22;20293;-73
2022/08/16 19:50:50;;;;;;;11.27;7.97;;;;;;;25.62;55.65;96617.69;6333800;22;20162;-75
2022/08/16 19:53:17;;;;;;;10.00;8.23;;;;;;;25.70;54.98;96621.13;6334605;22;20170;-74
2022/08/16 19:55:46;;;;;;;9.37;7.50;;;;;;;25.79;55.84;96621.91;6305865;22;20197;-73
2022/08/16 19:58:14;;;;;;;9.30;7.70;;;;;;;25.82;55.73;96629.53;6334543;22;20166;-75
2022/08/16 20:00:42;;;;;;;9.03;7.53;;;;;;;25.71;55.84;96627.25;6332886;22;20165;-76
2022/08/16 20:03:16;;;;;;;10.50;7.90;;;;;;;25.58;56.96;96625.16;6334253;22;20661;-76
2022/08/16 20:05:44;;;;;;;10.63;7.97;;;;;;;25.55;55.99;96620.22;6333624;22;20165;-77
2022/08/16 20:08:12;;;;;;;9.70;7.47;;;;;;;25.68;56.38;96630.25;6306520;22;20174;-78
2022/08/16 20:10:41;;;;;;;11.43;7.40;;;;;;;25.55;57.24;96632.66;6307150;22;20569;-78
2022/08/16 20:13:17;;;;;;;9.10;7.90;;;;;;;25.44;57.25;96644.47;6304530;22;20174;-72
2022/08/16 20:15:46;;;;;;;10.10;7.53;;;;;;;25.67;56.68;96640.06;6334670;22;20188;-71
2022/08/16 20:18:13;;;;;;;8.87;7.97;;;;;;;25.71;56.40;96643.19;6333122;22;20234;-75
2022/08/16 20:20:51;;;;;;;9.47;7.93;;;;;;;25.37;57.07;96639.97;6333707;22;20175;-75
2022/08/16 20:23:19;;;;;;;12.70;8.50;;;;;;;25.40;57.01;96650.22;6333796;22;20657;-76
2022/08/16 20:25:54;;;;;;;11.53;8.70;;;;;;;24.90;58.29;96637.28;6304481;22;20517;-73
2022/08/16 20:28:22;;;;;;;9.63;8.63;;;;;;;24.63;58.99;96645.53;6334174;22;20193;-76
2022/08/16 20:31:11;;;;;;;9.13;7.93;;;;;;;24.37;59.24;96645.72;6332988;22;20244;-76
2022/08/16 20:33:38;;;;;;;12.23;8.33;;;;;;;24.13;59.16;96637.75;6334072;22;20171;-72
2022/08/16 20:36:05;;;;;;;9.40;8.03;;;;;;;24.14;60.04;96648.16;6295966;22;20206;-76
2022/08/16 20:38:34;;;;;;;8.43;7.50;;;;;;;23.81;60.64;96649.06;6204152;22;20576;-72
2022/08/16 20:41:01;;;;;;;8.73;7.83;;;;;;;23.77;60.53;96636.31;6205288;23;20197;-72
2022/08/16 20:43:28;;;;;;;9.07;7.73;;;;;;;23.82;59.96;96645.41;6203930;23;20188;-75
2022/08/16 20:45:56;;;;;;;10.37;8.07;;;;;;;23.91;60.55;96649.75;6178504;23;20276;-75
2022/08/16 20:49:03;;;;;;;10.00;7.47;;;;;;;23.88;60.11;96644.78;6203483;23;20646;-75
2022/08/16 20:52:27;;;;;;;10.27;7.70;;;;;;;24.15;59.68;96633.94;6201836;23;20524;-73
2022/08/16 20:55:08;;;;;;;9.33;7.83;;;;;;;24.43;58.91;96657.47;6203789;23;20228;-75
2022/08/16 20:57:36;;;;;;;9.10;7.27;;;;;;;24.49;58.71;96640.91;6204470;23;20664;-72
2022/08/16 21:00:06;;;;;;;9.97;7.60;;;;;;;24.34;59.04;96645.22;6204060;23;20170;-74
2022/08/16 21:02:33;;;;;;;9.20;7.30;;;;;;;24.32;59.23;96652.50;6205047;22;20162;-74
2022/08/16 21:05:06;;;;;;;9.23;8.00;;;;;;;24.04;59.70;96636.06;6203160;23;20252;-73
2022/08/16 21:07:37;;;;;;;8.77;7.37;;;;;;;24.04;59.85;96642.19;6205389;22;20256;-77
2022/08/16 21:10:08;;;;;;;8.53;7.63;;;;;;;23.68;59.72;96614.28;6203759;23;20598;-73
2022/08/16 21:12:46;;;;;;;9.83;7.67;;;;;;;23.87;60.20;96631.69;6204760;23;20166;-75
2022/08/16 21:15:16;;;;;;;8.00;6.97;;;;;;;23.92;60.43;96646.13;6205302;23;20524;-74
2022/08/16 21:17:43;;;;;;;8.97;7.20;;;;;;;24.03;59.57;96637.03;6178207;23;20201;-75
2022/08/16 21:20:13;;;;;;;8.47;7.30;;;;;;;24.08;59.73;96648.81;6205837;23;20174;-73
2022/08/16 21:22:50;;;;;;;7.67;6.67;;;;;;;23.95;59.92;96642.28;6203181;23;20691;-72
2022/08/16 21:25:21;;;;;;;9.67;6.93;;;;;;;23.89;60.23;96643.78;6178482;22;20219;-73
2022/08/16 21:27:50;;;;;;;8.13;7.07;;;;;;;24.05;59.72;96645.69;6204906;23;20620;-72
2022/08/16 21:30:39;;;;;;;9.47;7.73;;;;;;;23.84;59.77;96630.22;6289885;22;20659;-71
2022/08/16 21:33:15;;;;;;;7.67;6.87;;;;;;;23.97;60.55;96645.59;6178303;23;20239;-72
2022/08/16 21:35:45;;;;;;;9.67;6.80;;;;;;;24.15;59.53;96641.88;6219891;22;20244;-71
2022/08/16 21:38:14;;;;;;;9.03;6.73;;;;;;;23.90;60.20;96645.44;6332684;22;20174;-70
2022/08/16 21:40:58;;;;;;;10.27;7.20;;;;;;;23.98;59.85;96647.28;6332381;22;20606;-71
2022/08/16 21:43:31;;;;;;;9.60;7.97;;;;;;;23.99;60.52;96641.81;6303996;22;20515;-72
2022/08/16 21:46:03;;;;;;;8.87;7.50;;;;;;;23.99;60.17;96643.63;6332709;22;20676;-72
2022/08/16 21:48:31;;;;;;;11.77;8.07;;;;;;;23.52;62.17;96648.63;6301455;22;20547;-73
2022/08/16 21:51:12;;;;;;;9.10;7.57;;;;;;;23.45;62.23;96647.63;6332393;22;20169;-74
2022/08/16 21:53:42;;;;;;;9.40;8.03;;;;;;;23.43;62.35;96636.38;6331986;22;20163;-71
2022/08/16 21:56:10;;;;;;;10.00;6.80;;;;;;;23.29;62.55;96636.91;6331044;22;20183;-72
2022/08/16 21:58:46;;;;;;;10.03;7.03;;;;;;;23.41;62.08;96644.44;6332657;22;20173;-71
2022/08/16 22:01:22;;;;;;;9.40;6.60;;;;;;;23.43;61.96;96647.75;6330510;22;20253;-72
2022/08/16 22:03:52;;;;;;;9.10;7.30;;;;;;;23.31;62.52;96648.16;6331556;22;20230;-71
2022/08/16 22:06:41;;;;;;;10.17;7.33;;;;;;;23.17;62.34;96638.19;6304580;22;20170;-72
2022/08/16 22:09:14;;;;;;;7.63;6.77;;;;;;;23.33;62.48;96659.44;6330021;22;20639;-72
2022/08/16 22:11:42;;;;;;;11.47;7.97;;;;;;;23.27;62.45;96650.28;6332308;22;20272;-72
2022/08/16 22:14:09;;;;;;;9.27;7.70;;;;;;;23.06;62.93;96641.91;6330404;22;20207;-71
2022/08/16 22:16:40;;;;;;;10.03;7.57;;;;;;;23.02;62.87;96645.03;6332280;22;20197;-72
2022/08/16 22:19:08;;;;;;;8.50;7.10;;;;;;;23.02;62.79;96651.13;6303857;22;20201;-72
2022/08/16 22:21:35;;;;;;;9.23;7.60;;;;;;;22.62;63.78;96637.69;6331577;22;20161;-72
2022/08/16 22:24:02;;;;;;;11.10;7.87;;;;;;;22.80;63.58;96646.38;6332409;22;20216;-71
2022/08/16 22:26:32;;;;;;;12.67;8.17;;;;;;;22.99;63.61;96648.81;6330599;22;20244;-73
2022/08/16 22:29:11;;;;;;;9.60;7.23;;;;;;;23.11;62.61;96649.38;6331925;22;20186;-71
2022/08/16 22:31:39;;;;;;;9.60;7.53;;;;;;;23.23;61.80;96650.75;6330352;22;20192;-73
2022/08/16 22:34:07;;;;;;;11.20;7.27;;;;;;;23.28;62.62;96656.41;6332068;22;20681;-72
2022/08/16 22:36:35;;;;;;;7.83;6.87;;;;;;;23.34;62.25;96654.00;6253709;22;20272;-72
2022/08/16 22:39:06;;;;;;;8.33;6.97;;;;;;;23.32;62.52;96657.78;6330928;22;20614;-71
2022/08/16 22:41:35;;;;;;;8.97;7.37;;;;;;;23.17;62.46;96649.59;6331850;22;20168;-72
2022/08/16 22:44:03;;;;;;;10.50;8.37;;;;;;;23.03;62.78;96662.53;6302653;22;20193;-72
2022/08/16 22:46:33;;;;;;;8.50;7.53;;;;;;;22.62;64.28;96653.50;6331633;22;20167;-71
2022/08/16 22:49:01;;;;;;;9.80;7.53;;;;;;;22.47;64.85;96649.72;6330308;22;20246;-72
2022/08/16 22:51:28;;;;;;;12.17;8.40;;;;;;;22.21;65.37;96656.75;6331548;22;20220;-71
2022/08/16 22:53:56;;;;;;;10.20;8.00;;;;;;;21.72;66.72;96647.50;6331529;22;20188;-72
2022/08/16 22:56:23;;;;;;;10.87;8.00;;;;;;;21.65;67.08;96641.16;6330156;22;20213;-71
2022/08/16 22:58:51;;;;;;;8.33;7.47;;;;;;;21.85;66.48;96640.06;6331625;22;20252;-72
2022/08/16 23:01:21;;;;;;;8.07;7.03;;;;;;;22.24;65.54;96654.63;6302704;22;20198;-71
2022/08/16 23:03:49;;;;;;;9.87;7.20;;;;;;;22.40;65.03;96654.78;6174577;22;20167;-73
2022/08/16 23:06:16;;;;;;;9.57;6.90;;;;;;;22.56;64.17;96660.22;6173815;22;20170;-72
2022/08/16 23:08:43;;;;;;;8.43;7.07;;;;;;;22.79;63.34;96665.03;6277953;22;20251;-71
2022/08/16 23:11:19;;;;;;;7.20;6.43;;;;;;;22.93;62.86;96657.38;6278142;22;20181;-71
2022/08/16 23:13:49;;;;;;;9.07;7.70;;;;;;;22.89;62.41;96663.13;6272458;22;20166;-72
2022/08/16 23:16:27;;;;;;;9.27;7.20;;;;;;;22.69;63.69;96653.72;6175721;22;20714;-72
2022/08/16 23:19:04;;;;;;;9.07;6.87;;;;;;;22.43;63.95;96638.66;6331671;22;20701;-75
2022/08/16 23:21:34;;;;;;;10.27;7.30;;;;;;;22.03;64.62;96635.63;6334166;22;20175;-75
2022/08/16 23:24:01;;;;;;;7.70;6.90;;;;;;;22.03;65.38;96648.00;6306224;22;20168;-75
2022/08/16 23:26:28;;;;;;;9.13;7.73;;;;;;;21.90;65.80;96650.19;6332296;22;20161;-75
2022/08/16 23:29:11;;;;;;;8.57;7.07;;;;;;;22.11;65.30;96638.38;6333521;22;20217;-72
2022/08/16 23:32:10;;;;;;;8.70;7.80;;;;;;;22.22;64.79;96630.22;6331948;22;20511;-73
2022/08/16 23:34:37;;;;;;;9.77;7.47;;;;;;;22.15;64.95;96638.91;6279435;22;20173;-73
2022/08/16 23:37:05;;;;;;;9.33;7.17;;;;;;;21.98;65.50;96637.06;6306271;22;20260;-73
2022/08/16 23:39:34;;;;;;;9.43;7.60;;;;;;;22.14;64.91;96637.22;6331839;22;20163;-74
2022/08/16 23:42:12;;;;;;;8.47;7.53;;;;;;;22.22;64.46;96624.94;6334054;22;20248;-72
2022/08/16 23:44:39;;;;;;;9.97;7.53;;;;;;;22.19;64.60;96638.44;6331519;22;20224;-73
2022/08/16 23:47:24;;;;;;;10.83;7.00;;;;;;;21.88;65.18;96629.25;6333205;22;20167;-74
2022/08/16 23:49:52;;;;;;;9.67;7.30;;;;;;;22.06;64.96;96626.59;6305807;22;20599;-72
2022/08/16 23:52:30;;;;;;;9.73;7.30;;;;;;;22.04;64.21;96613.56;6331548;22;20171;-73
2022/08/16 23:55:18;;;;;;;7.93;6.90;;;;;;;22.24;63.99;96625.63;6333566;22;20161;-74
2022/08/16 23:57:45;;;;;;;7.93;7.13;;;;;;;22.33;63.78;96614.16;6303874;22;20200;-74
